PWSweather.com
Personal Weather Stations
Station Observations
K4FB1
Clubhouse Heritage, Lakeland, FL 33812

Clubhouse HeritageLakeland, FL 33812

Lat: 27.969224, Lon: -81.897769

Elevation: 145

Station Type: Davis Vantage Pro2

http://www.ClubhouseWX.com

High Low Average
Temperature 100.3°F37.9°C 71.9°F22.2°C 82.1°F27.8°C
Dew Point 80.4°F26.9°C -29.1°F-33.9°C 14.2°F-9.9°C
Winds 7.0 mph 11.3 kmh Calm Calm 2.0 mph E3.2 kmh E
Wind Gusts 16.0 mph25.7 kmh -- 5.0 mph8.0 kmh
Humidity 63% 0% 18%
Pressure 30.00 in1015.9 mb 29.90 in1012.5 mb -
Precipitation 1.88 in47.8 mm - -
Hour Temp Dew Point Humidity Winds Wind Gusts Pressure Precip Precip Rate Daily Precip Total
12:00 AM 79.0°F26.1°C -29.1°F-33.9°C 0% Calm Calm 1.0 mph1.6 kmh 29.97 in1014.9 mb 0.00 in0.0 mm 0.00 in0.0 mm 0.00 in0.0 mm
12:05 AM 78.8°F26.0°C -29.1°F-33.9°C 0% Calm Calm 1.0 mph1.6 kmh 29.97 in1014.9 mb 0.00 in0.0 mm 0.00 in0.0 mm 0.00 in0.0 mm
12:10 AM 78.7°F25.9°C -29.1°F-33.9°C 0% Calm Calm 2.0 mph3.2 kmh 29.96 in1014.6 mb 0.00 in0.0 mm 0.00 in0.0 mm 0.00 in0.0 mm
12:15 AM 78.7°F25.9°C -29.1°F-33.9°C 0% 1.0 mph N1.6 kmh N 2.0 mph3.2 kmh 29.96 in1014.6 mb 0.00 in0.0 mm 0.00 in0.0 mm 0.00 in0.0 mm
12:20 AM 78.5°F25.8°C -29.1°F-33.9°C 0% 1.0 mph N1.6 kmh N 2.0 mph3.2 kmh 29.96 in1014.6 mb 0.00 in0.0 mm 0.00 in0.0 mm 0.00 in0.0 mm
12:25 AM 78.4°F25.8°C -29.1°F-33.9°C 0% Calm Calm 1.0 mph1.6 kmh 29.96 in1014.6 mb 0.00 in0.0 mm 0.00 in0.0 mm 0.00 in0.0 mm
12:30 AM 78.4°F25.8°C -29.1°F-33.9°C 0% Calm Calm 1.0 mph1.6 kmh 29.95 in1014.2 mb 0.00 in0.0 mm 0.00 in0.0 mm 0.00 in0.0 mm
12:35 AM 78.3°F25.7°C -29.1°F-33.9°C 0% Calm Calm 1.0 mph1.6 kmh 29.95 in1014.2 mb 0.00 in0.0 mm 0.00 in0.0 mm 0.00 in0.0 mm
12:40 AM 78.2°F25.7°C -29.1°F-33.9°C 0% Calm Calm 1.0 mph1.6 kmh 29.95 in1014.2 mb 0.00 in0.0 mm 0.00 in0.0 mm 0.00 in0.0 mm
12:45 AM 78.0°F25.6°C -29.1°F-33.9°C 0% Calm Calm 1.0 mph1.6 kmh 29.95 in1014.2 mb 0.00 in0.0 mm 0.00 in0.0 mm 0.00 in0.0 mm
12:50 AM 78.0°F25.6°C -29.1°F-33.9°C 0% Calm Calm 1.0 mph1.6 kmh 29.95 in1014.2 mb 0.00 in0.0 mm 0.00 in0.0 mm 0.00 in0.0 mm
12:55 AM 77.9°F25.5°C -29.1°F-33.9°C 0% Calm Calm 1.0 mph1.6 kmh 29.95 in1014.2 mb 0.00 in0.0 mm 0.00 in0.0 mm 0.00 in0.0 mm
01:00 AM 77.8°F25.4°C -29.1°F-33.9°C 0% Calm Calm 2.0 mph3.2 kmh 29.95 in1014.2 mb 0.00 in0.0 mm 0.00 in0.0 mm 0.00 in0.0 mm
01:05 AM 77.8°F25.4°C -29.1°F-33.9°C 0% 1.0 mph N1.6 kmh N 2.0 mph3.2 kmh 29.95 in1014.2 mb 0.00 in0.0 mm 0.00 in0.0 mm 0.00 in0.0 mm
01:10 AM 77.9°F25.5°C -29.1°F-33.9°C 0% 1.0 mph N1.6 kmh N 2.0 mph3.2 kmh 29.94 in1013.9 mb 0.00 in0.0 mm 0.00 in0.0 mm 0.00 in0.0 mm
01:15 AM 77.9°F25.5°C -29.1°F-33.9°C 0% 1.0 mph N1.6 kmh N 2.0 mph3.2 kmh 29.95 in1014.2 mb 0.00 in0.0 mm 0.00 in0.0 mm 0.00 in0.0 mm
01:20 AM 77.9°F25.5°C -29.1°F-33.9°C 0% Calm Calm 1.0 mph1.6 kmh 29.95 in1014.2 mb 0.00 in0.0 mm 0.00 in0.0 mm 0.00 in0.0 mm
01:25 AM 77.9°F25.5°C -29.1°F-33.9°C 0% Calm Calm 1.0 mph1.6 kmh 29.95 in1014.2 mb 0.00 in0.0 mm 0.00 in0.0 mm 0.00 in0.0 mm
01:30 AM 77.9°F25.5°C -29.1°F-33.9°C 0% 1.0 mph N1.6 kmh N 1.0 mph1.6 kmh 29.95 in1014.2 mb 0.00 in0.0 mm 0.00 in0.0 mm 0.00 in0.0 mm
01:35 AM 77.8°F25.4°C -29.1°F-33.9°C 0% Calm Calm 1.0 mph1.6 kmh 29.95 in1014.2 mb 0.00 in0.0 mm 0.00 in0.0 mm 0.00 in0.0 mm
01:40 AM 77.7°F25.4°C -29.1°F-33.9°C 0% Calm Calm 1.0 mph1.6 kmh 29.95 in1014.2 mb 0.00 in0.0 mm 0.00 in0.0 mm 0.00 in0.0 mm
01:45 AM 77.5°F25.3°C -29.1°F-33.9°C 0% Calm Calm 1.0 mph1.6 kmh 29.95 in1014.2 mb 0.00 in0.0 mm 0.00 in0.0 mm 0.00 in0.0 mm
01:50 AM 77.5°F25.3°C -29.1°F-33.9°C 0% Calm Calm -- 29.95 in1014.2 mb 0.00 in0.0 mm 0.00 in0.0 mm 0.00 in0.0 mm
01:55 AM 77.4°F25.2°C -29.1°F-33.9°C 0% Calm Calm -- 29.95 in1014.2 mb 0.00 in0.0 mm 0.00 in0.0 mm 0.00 in0.0 mm
02:00 AM 77.3°F25.2°C -29.1°F-33.9°C 0% Calm Calm 1.0 mph1.6 kmh 29.95 in1014.2 mb 0.00 in0.0 mm 0.00 in0.0 mm 0.00 in0.0 mm
02:05 AM 77.2°F25.1°C -29.1°F-33.9°C 0% Calm Calm 1.0 mph1.6 kmh 29.95 in1014.2 mb 0.00 in0.0 mm 0.00 in0.0 mm 0.00 in0.0 mm
02:10 AM 77.1°F25.1°C -29.1°F-33.9°C 0% Calm Calm 1.0 mph1.6 kmh 29.95 in1014.2 mb 0.00 in0.0 mm 0.00 in0.0 mm 0.00 in0.0 mm
02:15 AM 77.0°F25.0°C -29.1°F-33.9°C 0% Calm Calm 1.0 mph1.6 kmh 29.94 in1013.9 mb 0.00 in0.0 mm 0.00 in0.0 mm 0.00 in0.0 mm
02:20 AM 76.8°F24.9°C -29.1°F-33.9°C 0% Calm Calm -- 29.94 in1013.9 mb 0.00 in0.0 mm 0.00 in0.0 mm 0.00 in0.0 mm
02:25 AM 76.7°F24.8°C -29.1°F-33.9°C 0% Calm Calm -- 29.94 in1013.9 mb 0.00 in0.0 mm 0.00 in0.0 mm 0.00 in0.0 mm
02:30 AM 76.6°F24.8°C -29.1°F-33.9°C 0% Calm Calm -- 29.94 in1013.9 mb 0.00 in0.0 mm 0.00 in0.0 mm 0.00 in0.0 mm
02:35 AM 76.5°F24.7°C -29.1°F-33.9°C 0% Calm Calm 1.0 mph1.6 kmh 29.94 in1013.9 mb 0.00 in0.0 mm 0.00 in0.0 mm 0.00 in0.0 mm
02:40 AM 76.4°F24.7°C -29.1°F-33.9°C 0% Calm Calm 1.0 mph1.6 kmh 29.94 in1013.9 mb 0.00 in0.0 mm 0.00 in0.0 mm 0.00 in0.0 mm
02:45 AM 76.4°F24.7°C -29.1°F-33.9°C 0% Calm Calm 1.0 mph1.6 kmh 29.94 in1013.9 mb 0.00 in0.0 mm 0.00 in0.0 mm 0.00 in0.0 mm
02:50 AM 76.4°F24.7°C -29.1°F-33.9°C 0% Calm Calm 1.0 mph1.6 kmh 29.94 in1013.9 mb 0.00 in0.0 mm 0.00 in0.0 mm 0.00 in0.0 mm
02:55 AM 76.3°F24.6°C -29.1°F-33.9°C 0% Calm Calm 1.0 mph1.6 kmh 29.94 in1013.9 mb 0.00 in0.0 mm 0.00 in0.0 mm 0.00 in0.0 mm
03:00 AM 76.2°F24.6°C -29.1°F-33.9°C 0% Calm Calm -- 29.93 in1013.5 mb 0.00 in0.0 mm 0.00 in0.0 mm 0.00 in0.0 mm
03:05 AM 76.0°F24.4°C -29.1°F-33.9°C 0% Calm Calm -- 29.93 in1013.5 mb 0.00 in0.0 mm 0.00 in0.0 mm 0.00 in0.0 mm
03:10 AM 76.0°F24.4°C -29.1°F-33.9°C 0% Calm Calm -- 29.93 in1013.5 mb 0.00 in0.0 mm 0.00 in0.0 mm 0.00 in0.0 mm
03:15 AM 76.0°F24.4°C -29.1°F-33.9°C 0% Calm Calm -- 29.93 in1013.5 mb 0.00 in0.0 mm 0.00 in0.0 mm 0.00 in0.0 mm
03:20 AM 76.0°F24.4°C -29.1°F-33.9°C 0% Calm Calm -- 29.93 in1013.5 mb 0.00 in0.0 mm 0.00 in0.0 mm 0.00 in0.0 mm
03:25 AM 76.1°F24.5°C -29.1°F-33.9°C 0% Calm Calm -- 29.93 in1013.5 mb 0.00 in0.0 mm 0.00 in0.0 mm 0.00 in0.0 mm
03:30 AM 76.1°F24.5°C -29.1°F-33.9°C 0% Calm Calm 1.0 mph1.6 kmh 29.93 in1013.5 mb 0.00 in0.0 mm 0.00 in0.0 mm 0.00 in0.0 mm
03:35 AM 76.1°F24.5°C -29.1°F-33.9°C 0% Calm Calm 1.0 mph1.6 kmh 29.93 in1013.5 mb 0.00 in0.0 mm 0.00 in0.0 mm 0.00 in0.0 mm
03:40 AM 76.0°F24.4°C -29.1°F-33.9°C 0% Calm Calm 1.0 mph1.6 kmh 29.93 in1013.5 mb 0.00 in0.0 mm 0.00 in0.0 mm 0.00 in0.0 mm
03:45 AM 75.9°F24.4°C -29.1°F-33.9°C 0% Calm Calm 1.0 mph1.6 kmh 29.93 in1013.5 mb 0.00 in0.0 mm 0.00 in0.0 mm 0.00 in0.0 mm
03:50 AM 75.8°F24.3°C -29.1°F-33.9°C 0% Calm Calm -- 29.93 in1013.5 mb 0.00 in0.0 mm 0.00 in0.0 mm 0.00 in0.0 mm
03:55 AM 75.8°F24.3°C -29.1°F-33.9°C 0% Calm Calm -- 29.93 in1013.5 mb 0.00 in0.0 mm 0.00 in0.0 mm 0.00 in0.0 mm
04:00 AM 75.7°F24.3°C -29.1°F-33.9°C 0% Calm Calm -- 29.93 in1013.5 mb 0.00 in0.0 mm 0.00 in0.0 mm 0.00 in0.0 mm
04:05 AM 75.6°F24.2°C -29.1°F-33.9°C 0% Calm Calm -- 29.94 in1013.9 mb 0.00 in0.0 mm 0.00 in0.0 mm 0.00 in0.0 mm
04:10 AM 75.5°F24.2°C -29.1°F-33.9°C 0% Calm Calm -- 29.93 in1013.5 mb 0.00 in0.0 mm 0.00 in0.0 mm 0.00 in0.0 mm
04:15 AM 75.3°F24.1°C -29.1°F-33.9°C 0% Calm Calm 1.0 mph1.6 kmh 29.94 in1013.9 mb 0.00 in0.0 mm 0.00 in0.0 mm 0.00 in0.0 mm
04:20 AM 75.3°F24.1°C -29.1°F-33.9°C 0% Calm Calm 1.0 mph1.6 kmh 29.94 in1013.9 mb 0.00 in0.0 mm 0.00 in0.0 mm 0.00 in0.0 mm
04:25 AM 75.3°F24.1°C -29.1°F-33.9°C 0% Calm Calm 1.0 mph1.6 kmh 29.93 in1013.5 mb 0.00 in0.0 mm 0.00 in0.0 mm 0.00 in0.0 mm
04:30 AM 75.3°F24.1°C -29.1°F-33.9°C 0% Calm Calm 1.0 mph1.6 kmh 29.93 in1013.5 mb 0.00 in0.0 mm 0.00 in0.0 mm 0.00 in0.0 mm
04:35 AM 75.2°F24.0°C -29.1°F-33.9°C 0% Calm Calm 1.0 mph1.6 kmh 29.94 in1013.9 mb 0.00 in0.0 mm 0.00 in0.0 mm 0.00 in0.0 mm
04:40 AM 75.2°F24.0°C -29.1°F-33.9°C 0% Calm Calm 1.0 mph1.6 kmh 29.94 in1013.9 mb 0.00 in0.0 mm 0.00 in0.0 mm 0.00 in0.0 mm
04:45 AM 75.1°F23.9°C -29.1°F-33.9°C 0% Calm Calm -- 29.94 in1013.9 mb 0.00 in0.0 mm 0.00 in0.0 mm 0.00 in0.0 mm
04:50 AM 75.3°F24.1°C -29.1°F-33.9°C 0% Calm Calm 1.0 mph1.6 kmh 29.94 in1013.9 mb 0.00 in0.0 mm 0.00 in0.0 mm 0.00 in0.0 mm
04:55 AM 75.3°F24.1°C -29.1°F-33.9°C 0% Calm Calm 1.0 mph1.6 kmh 29.94 in1013.9 mb 0.00 in0.0 mm 0.00 in0.0 mm 0.00 in0.0 mm
05:00 AM 75.3°F24.1°C -29.1°F-33.9°C 0% Calm Calm 1.0 mph1.6 kmh 29.94 in1013.9 mb 0.00 in0.0 mm 0.00 in0.0 mm 0.00 in0.0 mm
05:05 AM 75.3°F24.1°C -29.1°F-33.9°C 0% Calm Calm 1.0 mph1.6 kmh 29.95 in1014.2 mb 0.00 in0.0 mm 0.00 in0.0 mm 0.00 in0.0 mm
05:10 AM 75.4°F24.1°C -29.1°F-33.9°C 0% Calm Calm 1.0 mph1.6 kmh 29.95 in1014.2 mb 0.00 in0.0 mm 0.00 in0.0 mm 0.00 in0.0 mm
05:15 AM 75.4°F24.1°C -29.1°F-33.9°C 0% Calm Calm 1.0 mph1.6 kmh 29.95 in1014.2 mb 0.00 in0.0 mm 0.00 in0.0 mm 0.00 in0.0 mm
05:20 AM 75.4°F24.1°C -29.1°F-33.9°C 0% Calm Calm 1.0 mph1.6 kmh 29.94 in1013.9 mb 0.00 in0.0 mm 0.00 in0.0 mm 0.00 in0.0 mm
05:25 AM 75.4°F24.1°C -29.1°F-33.9°C 0% Calm Calm 1.0 mph1.6 kmh 29.94 in1013.9 mb 0.00 in0.0 mm 0.00 in0.0 mm 0.00 in0.0 mm
05:30 AM 75.4°F24.1°C -29.1°F-33.9°C 0% Calm Calm 1.0 mph1.6 kmh 29.95 in1014.2 mb 0.00 in0.0 mm 0.00 in0.0 mm 0.00 in0.0 mm
05:35 AM 75.3°F24.1°C -29.1°F-33.9°C 0% Calm Calm 1.0 mph1.6 kmh 29.95 in1014.2 mb 0.00 in0.0 mm 0.00 in0.0 mm 0.00 in0.0 mm
05:40 AM 75.3°F24.1°C -29.1°F-33.9°C 0% Calm Calm 1.0 mph1.6 kmh 29.95 in1014.2 mb 0.00 in0.0 mm 0.00 in0.0 mm 0.00 in0.0 mm
05:45 AM 75.2°F24.0°C -29.1°F-33.9°C 0% Calm Calm -- 29.95 in1014.2 mb 0.00 in0.0 mm 0.00 in0.0 mm 0.00 in0.0 mm
05:50 AM 75.3°F24.1°C -29.1°F-33.9°C 0% Calm Calm 1.0 mph1.6 kmh 29.95 in1014.2 mb 0.00 in0.0 mm 0.00 in0.0 mm 0.00 in0.0 mm
05:55 AM 75.3°F24.1°C -29.1°F-33.9°C 0% Calm Calm 1.0 mph1.6 kmh 29.96 in1014.6 mb 0.00 in0.0 mm 0.00 in0.0 mm 0.00 in0.0 mm
06:00 AM 75.3°F24.1°C -29.1°F-33.9°C 0% Calm Calm 1.0 mph1.6 kmh 29.96 in1014.6 mb 0.00 in0.0 mm 0.00 in0.0 mm 0.00 in0.0 mm
06:05 AM 75.3°F24.1°C -29.1°F-33.9°C 0% Calm Calm 1.0 mph1.6 kmh 29.96 in1014.6 mb 0.00 in0.0 mm 0.00 in0.0 mm 0.00 in0.0 mm
06:10 AM 75.2°F24.0°C -29.1°F-33.9°C 0% Calm Calm -- 29.96 in1014.6 mb 0.00 in0.0 mm 0.00 in0.0 mm 0.00 in0.0 mm
06:15 AM 75.1°F23.9°C -29.1°F-33.9°C 0% Calm Calm 1.0 mph1.6 kmh 29.96 in1014.6 mb 0.00 in0.0 mm 0.00 in0.0 mm 0.00 in0.0 mm
06:20 AM 75.0°F23.9°C -29.1°F-33.9°C 0% Calm Calm 1.0 mph1.6 kmh 29.97 in1014.9 mb 0.00 in0.0 mm 0.00 in0.0 mm 0.00 in0.0 mm
06:25 AM 74.9°F23.8°C -29.1°F-33.9°C 0% Calm Calm -- 29.97 in1014.9 mb 0.00 in0.0 mm 0.00 in0.0 mm 0.00 in0.0 mm
06:30 AM 74.9°F23.8°C -29.1°F-33.9°C 0% Calm Calm -- 29.97 in1014.9 mb 0.00 in0.0 mm 0.00 in0.0 mm 0.00 in0.0 mm
06:35 AM 75.0°F23.9°C -29.1°F-33.9°C 0% Calm Calm 1.0 mph1.6 kmh 29.97 in1014.9 mb 0.00 in0.0 mm 0.00 in0.0 mm 0.00 in0.0 mm
06:40 AM 75.3°F24.1°C -29.1°F-33.9°C 0% 1.0 mph N1.6 kmh N 2.0 mph3.2 kmh 29.97 in1014.9 mb 0.00 in0.0 mm 0.00 in0.0 mm 0.00 in0.0 mm
06:45 AM 75.6°F24.2°C -29.1°F-33.9°C 0% 1.0 mph N1.6 kmh N 2.0 mph3.2 kmh 29.97 in1014.9 mb 0.00 in0.0 mm 0.00 in0.0 mm 0.00 in0.0 mm
06:50 AM 75.7°F24.3°C -29.1°F-33.9°C 0% Calm Calm 1.0 mph1.6 kmh 29.97 in1014.9 mb 0.00 in0.0 mm 0.00 in0.0 mm 0.00 in0.0 mm
06:55 AM 75.8°F24.3°C -29.1°F-33.9°C 0% Calm Calm -- 29.97 in1014.9 mb 0.00 in0.0 mm 0.00 in0.0 mm 0.00 in0.0 mm
07:00 AM 76.0°F24.4°C -29.1°F-33.9°C 0% Calm Calm 1.0 mph1.6 kmh 29.97 in1014.9 mb 0.00 in0.0 mm 0.00 in0.0 mm 0.00 in0.0 mm
07:05 AM 76.4°F24.7°C -29.1°F-33.9°C 0% Calm Calm 1.0 mph1.6 kmh 29.97 in1014.9 mb 0.00 in0.0 mm 0.00 in0.0 mm 0.00 in0.0 mm
07:10 AM 76.6°F24.8°C -29.1°F-33.9°C 0% Calm Calm 1.0 mph1.6 kmh 29.97 in1014.9 mb 0.00 in0.0 mm 0.00 in0.0 mm 0.00 in0.0 mm
07:15 AM 77.2°F25.1°C -29.1°F-33.9°C 0% 1.0 mph N1.6 kmh N 2.0 mph3.2 kmh 29.97 in1014.9 mb 0.00 in0.0 mm 0.00 in0.0 mm 0.00 in0.0 mm
07:20 AM 77.6°F25.3°C -29.1°F-33.9°C 0% 1.0 mph N1.6 kmh N 2.0 mph3.2 kmh 29.97 in1014.9 mb 0.00 in0.0 mm 0.00 in0.0 mm 0.00 in0.0 mm
07:25 AM 77.9°F25.5°C -29.1°F-33.9°C 0% 1.0 mph N1.6 kmh N 3.0 mph4.8 kmh 29.98 in1015.2 mb 0.00 in0.0 mm 0.00 in0.0 mm 0.00 in0.0 mm
07:30 AM 78.4°F25.8°C -29.1°F-33.9°C 0% 1.0 mph N1.6 kmh N 3.0 mph4.8 kmh 29.98 in1015.2 mb 0.00 in0.0 mm 0.00 in0.0 mm 0.00 in0.0 mm
07:35 AM 78.8°F26.0°C -29.1°F-33.9°C 0% 2.0 mph N3.2 kmh N 5.0 mph8.0 kmh 29.98 in1015.2 mb 0.00 in0.0 mm 0.00 in0.0 mm 0.00 in0.0 mm
07:40 AM 79.2°F26.2°C -29.1°F-33.9°C 0% 2.0 mph NNE3.2 kmh NNE 5.0 mph8.0 kmh 29.98 in1015.2 mb 0.00 in0.0 mm 0.00 in0.0 mm 0.00 in0.0 mm
07:45 AM 79.6°F26.4°C -29.1°F-33.9°C 0% 3.0 mph NE4.8 kmh NE 5.0 mph8.0 kmh 29.98 in1015.2 mb 0.00 in0.0 mm 0.00 in0.0 mm 0.00 in0.0 mm
07:50 AM 80.0°F26.7°C -29.1°F-33.9°C 0% 2.0 mph NE3.2 kmh NE 5.0 mph8.0 kmh 29.98 in1015.2 mb 0.00 in0.0 mm 0.00 in0.0 mm 0.00 in0.0 mm
07:55 AM 80.5°F26.9°C -29.1°F-33.9°C 0% 2.0 mph NE3.2 kmh NE 5.0 mph8.0 kmh 29.98 in1015.2 mb 0.00 in0.0 mm 0.00 in0.0 mm 0.00 in0.0 mm
08:00 AM 81.1°F27.3°C -29.1°F-33.9°C 0% 2.0 mph NE3.2 kmh NE 5.0 mph8.0 kmh 29.98 in1015.2 mb 0.00 in0.0 mm 0.00 in0.0 mm 0.00 in0.0 mm
08:05 AM 81.5°F27.5°C -29.1°F-33.9°C 0% 3.0 mph NE4.8 kmh NE 6.0 mph9.7 kmh 29.98 in1015.2 mb 0.00 in0.0 mm 0.00 in0.0 mm 0.00 in0.0 mm
08:10 AM 81.9°F27.7°C -29.1°F-33.9°C 0% 3.0 mph NE4.8 kmh NE 6.0 mph9.7 kmh 29.98 in1015.2 mb 0.00 in0.0 mm 0.00 in0.0 mm 0.00 in0.0 mm
08:15 AM 82.3°F27.9°C -29.1°F-33.9°C 0% 2.0 mph NNE3.2 kmh NNE 5.0 mph8.0 kmh 29.98 in1015.2 mb 0.00 in0.0 mm 0.00 in0.0 mm 0.00 in0.0 mm
08:20 AM 82.8°F28.2°C -29.1°F-33.9°C 0% 2.0 mph NNE3.2 kmh NNE 5.0 mph8.0 kmh 29.98 in1015.2 mb 0.00 in0.0 mm 0.00 in0.0 mm 0.00 in0.0 mm
08:25 AM 83.3°F28.5°C -29.1°F-33.9°C 0% 2.0 mph NNE3.2 kmh NNE 4.0 mph6.4 kmh 29.98 in1015.2 mb 0.00 in0.0 mm 0.00 in0.0 mm 0.00 in0.0 mm
08:30 AM 83.7°F28.7°C -29.1°F-33.9°C 0% 2.0 mph NE3.2 kmh NE 6.0 mph9.7 kmh 29.99 in1015.6 mb 0.00 in0.0 mm 0.00 in0.0 mm 0.00 in0.0 mm
08:35 AM 84.0°F28.9°C -29.1°F-33.9°C 0% 2.0 mph NE3.2 kmh NE 6.0 mph9.7 kmh 29.99 in1015.6 mb 0.00 in0.0 mm 0.00 in0.0 mm 0.00 in0.0 mm
08:40 AM 83.9°F28.8°C -29.1°F-33.9°C 0% 3.0 mph NE4.8 kmh NE 6.0 mph9.7 kmh 29.99 in1015.6 mb 0.00 in0.0 mm 0.00 in0.0 mm 0.00 in0.0 mm
08:45 AM 84.0°F28.9°C -29.1°F-33.9°C 0% 3.0 mph NE4.8 kmh NE 6.0 mph9.7 kmh 29.99 in1015.6 mb 0.00 in0.0 mm 0.00 in0.0 mm 0.00 in0.0 mm
08:50 AM 84.3°F29.1°C -29.1°F-33.9°C 0% 2.0 mph NE3.2 kmh NE 6.0 mph9.7 kmh 29.99 in1015.6 mb 0.00 in0.0 mm 0.00 in0.0 mm 0.00 in0.0 mm
08:55 AM 85.0°F29.4°C -29.1°F-33.9°C 0% 2.0 mph NE3.2 kmh NE 7.0 mph11.3 kmh 29.99 in1015.6 mb 0.00 in0.0 mm 0.00 in0.0 mm 0.00 in0.0 mm
09:00 AM 85.7°F29.8°C -29.1°F-33.9°C 0% 2.0 mph NE3.2 kmh NE 7.0 mph11.3 kmh 29.99 in1015.6 mb 0.00 in0.0 mm 0.00 in0.0 mm 0.00 in0.0 mm
09:05 AM 86.4°F30.2°C 23.4°F-4.8°C 10% 3.0 mph NE4.8 kmh NE 5.0 mph8.0 kmh 29.99 in1015.6 mb 0.00 in0.0 mm 0.00 in0.0 mm 0.00 in0.0 mm
09:10 AM 86.3°F30.2°C 15.0°F-9.4°C 7% 3.0 mph NNE4.8 kmh NNE 5.0 mph8.0 kmh 29.99 in1015.6 mb 0.00 in0.0 mm 0.00 in0.0 mm 0.00 in0.0 mm
09:15 AM 86.6°F30.3°C 25.8°F-3.4°C 11% 3.0 mph NNE4.8 kmh NNE 5.0 mph8.0 kmh 29.99 in1015.6 mb 0.00 in0.0 mm 0.00 in0.0 mm 0.00 in0.0 mm
09:20 AM 86.8°F30.4°C 40.9°F4.9°C 20% 2.0 mph NE3.2 kmh NE 5.0 mph8.0 kmh 30.00 in1015.9 mb 0.00 in0.0 mm 0.00 in0.0 mm 0.00 in0.0 mm
09:25 AM 86.8°F30.4°C 39.6°F4.2°C 19% 2.0 mph NE3.2 kmh NE 5.0 mph8.0 kmh 30.00 in1015.9 mb 0.00 in0.0 mm 0.00 in0.0 mm 0.00 in0.0 mm
09:30 AM 87.4°F30.8°C 34.1°F1.2°C 15% 3.0 mph NE4.8 kmh NE 5.0 mph8.0 kmh 30.00 in1015.9 mb 0.00 in0.0 mm 0.00 in0.0 mm 0.00 in0.0 mm
09:35 AM 88.3°F31.3°C 51.1°F10.6°C 28% 3.0 mph NE4.8 kmh NE 7.0 mph11.3 kmh 30.00 in1015.9 mb 0.00 in0.0 mm 0.00 in0.0 mm 0.00 in0.0 mm
09:40 AM 89.1°F31.7°C 53.6°F12.0°C 30% 4.0 mph E6.4 kmh E 9.0 mph14.5 kmh 30.00 in1015.9 mb 0.00 in0.0 mm 0.00 in0.0 mm 0.00 in0.0 mm
09:45 AM 89.5°F31.9°C 61.3°F16.3°C 39% 4.0 mph ESE6.4 kmh ESE 9.0 mph14.5 kmh 30.00 in1015.9 mb 0.00 in0.0 mm 0.00 in0.0 mm 0.00 in0.0 mm
09:50 AM 89.2°F31.8°C 64.4°F18.0°C 44% 3.0 mph E4.8 kmh E 8.0 mph12.9 kmh 30.00 in1015.9 mb 0.00 in0.0 mm 0.00 in0.0 mm 0.00 in0.0 mm
09:55 AM 89.2°F31.8°C 63.1°F17.3°C 42% 3.0 mph ENE4.8 kmh ENE 7.0 mph11.3 kmh 30.00 in1015.9 mb 0.00 in0.0 mm 0.00 in0.0 mm 0.00 in0.0 mm
10:00 AM 89.8°F32.1°C 59.3°F15.2°C 36% 3.0 mph E4.8 kmh E 9.0 mph14.5 kmh 30.00 in1015.9 mb 0.00 in0.0 mm 0.00 in0.0 mm 0.00 in0.0 mm
10:05 AM 90.2°F32.3°C 67.9°F19.9°C 48% 4.0 mph E6.4 kmh E 9.0 mph14.5 kmh 30.00 in1015.9 mb 0.00 in0.0 mm 0.00 in0.0 mm 0.00 in0.0 mm
10:10 AM 90.5°F32.5°C 71.0°F21.7°C 53% 3.0 mph ENE4.8 kmh ENE 7.0 mph11.3 kmh 30.00 in1015.9 mb 0.00 in0.0 mm 0.00 in0.0 mm 0.00 in0.0 mm
10:15 AM 90.8°F32.7°C 72.4°F22.4°C 55% 3.0 mph ESE4.8 kmh ESE 10.0 mph16.1 kmh 30.00 in1015.9 mb 0.00 in0.0 mm 0.00 in0.0 mm 0.00 in0.0 mm
10:20 AM 91.0°F32.8°C 70.4°F21.3°C 51% 3.0 mph ESE4.8 kmh ESE 10.0 mph16.1 kmh 30.00 in1015.9 mb 0.00 in0.0 mm 0.00 in0.0 mm 0.00 in0.0 mm
10:25 AM 91.3°F32.9°C 70.6°F21.4°C 51% 3.0 mph E4.8 kmh E 9.0 mph14.5 kmh 30.00 in1015.9 mb 0.00 in0.0 mm 0.00 in0.0 mm 0.00 in0.0 mm
10:30 AM 91.5°F33.1°C 74.1°F23.4°C 57% 4.0 mph E6.4 kmh E 9.0 mph14.5 kmh 30.00 in1015.9 mb 0.00 in0.0 mm 0.00 in0.0 mm 0.00 in0.0 mm
10:35 AM 91.2°F32.9°C 72.8°F22.7°C 55% 3.0 mph ENE4.8 kmh ENE 8.0 mph12.9 kmh 30.00 in1015.9 mb 0.00 in0.0 mm 0.00 in0.0 mm 0.00 in0.0 mm
10:40 AM 91.4°F33.0°C 72.4°F22.4°C 54% 3.0 mph ENE4.8 kmh ENE 9.0 mph14.5 kmh 29.99 in1015.6 mb 0.00 in0.0 mm 0.00 in0.0 mm 0.00 in0.0 mm
10:45 AM 91.9°F33.3°C 72.9°F22.7°C 54% 4.0 mph E6.4 kmh E 9.0 mph14.5 kmh 29.99 in1015.6 mb 0.00 in0.0 mm 0.00 in0.0 mm 0.00 in0.0 mm
10:50 AM 92.3°F33.5°C 74.9°F23.8°C 57% 4.0 mph ESE6.4 kmh ESE 9.0 mph14.5 kmh 29.99 in1015.6 mb 0.00 in0.0 mm 0.00 in0.0 mm 0.00 in0.0 mm
10:55 AM 92.6°F33.7°C 76.7°F24.8°C 60% 3.0 mph SE4.8 kmh SE 7.0 mph11.3 kmh 29.99 in1015.6 mb 0.00 in0.0 mm 0.00 in0.0 mm 0.00 in0.0 mm
11:00 AM 92.5°F33.6°C 76.6°F24.8°C 60% 3.0 mph ESE4.8 kmh ESE 8.0 mph12.9 kmh 29.99 in1015.6 mb 0.00 in0.0 mm 0.00 in0.0 mm 0.00 in0.0 mm
11:05 AM 92.8°F33.8°C 76.9°F24.9°C 60% 3.0 mph E4.8 kmh E 8.0 mph12.9 kmh 29.99 in1015.6 mb 0.00 in0.0 mm 0.00 in0.0 mm 0.00 in0.0 mm
11:10 AM 92.8°F33.8°C 76.9°F24.9°C 60% 4.0 mph E6.4 kmh E 8.0 mph12.9 kmh 29.98 in1015.2 mb 0.00 in0.0 mm 0.00 in0.0 mm 0.00 in0.0 mm
11:15 AM 92.9°F33.8°C 77.0°F25.0°C 60% 4.0 mph ENE6.4 kmh ENE 9.0 mph14.5 kmh 29.98 in1015.2 mb 0.00 in0.0 mm 0.00 in0.0 mm 0.00 in0.0 mm
11:20 AM 93.1°F33.9°C 77.7°F25.4°C 61% 4.0 mph E6.4 kmh E 10.0 mph16.1 kmh 29.98 in1015.2 mb 0.00 in0.0 mm 0.00 in0.0 mm 0.00 in0.0 mm
11:25 AM 92.7°F33.7°C 77.3°F25.2°C 61% 5.0 mph SE8.0 kmh SE 11.0 mph17.7 kmh 29.98 in1015.2 mb 0.00 in0.0 mm 0.00 in0.0 mm 0.00 in0.0 mm
11:30 AM 92.7°F33.7°C 76.8°F24.9°C 60% 4.0 mph SE6.4 kmh SE 11.0 mph17.7 kmh 29.98 in1015.2 mb 0.00 in0.0 mm 0.00 in0.0 mm 0.00 in0.0 mm
11:35 AM 93.2°F34.0°C 77.7°F25.4°C 61% 3.0 mph SE4.8 kmh SE 6.0 mph9.7 kmh 29.98 in1015.2 mb 0.00 in0.0 mm 0.00 in0.0 mm 0.00 in0.0 mm
11:40 AM 93.6°F34.2°C 78.1°F25.6°C 61% 3.0 mph E4.8 kmh E 8.0 mph12.9 kmh 29.98 in1015.2 mb 0.00 in0.0 mm 0.00 in0.0 mm 0.00 in0.0 mm
11:45 AM 93.7°F34.3°C 78.2°F25.7°C 61% 3.0 mph ENE4.8 kmh ENE 8.0 mph12.9 kmh 29.98 in1015.2 mb 0.00 in0.0 mm 0.00 in0.0 mm 0.00 in0.0 mm
11:50 AM 93.7°F34.3°C 78.7°F25.9°C 62% 2.0 mph E3.2 kmh E 9.0 mph14.5 kmh 29.98 in1015.2 mb 0.00 in0.0 mm 0.00 in0.0 mm 0.00 in0.0 mm
11:55 AM 93.7°F34.3°C 78.2°F25.7°C 61% 3.0 mph E4.8 kmh E 9.0 mph14.5 kmh 29.98 in1015.2 mb 0.00 in0.0 mm 0.00 in0.0 mm 0.00 in0.0 mm
12:00 PM 93.5°F34.2°C 78.0°F25.6°C 61% 4.0 mph E6.4 kmh E 8.0 mph12.9 kmh 29.97 in1014.9 mb 0.00 in0.0 mm 0.00 in0.0 mm 0.00 in0.0 mm
12:05 PM 93.5°F34.2°C 78.0°F25.6°C 61% 4.0 mph SE6.4 kmh SE 8.0 mph12.9 kmh 29.97 in1014.9 mb 0.00 in0.0 mm 0.00 in0.0 mm 0.00 in0.0 mm
12:10 PM 93.9°F34.4°C 78.4°F25.8°C 61% 4.0 mph SE6.4 kmh SE 9.0 mph14.5 kmh 29.97 in1014.9 mb 0.00 in0.0 mm 0.00 in0.0 mm 0.00 in0.0 mm
12:15 PM 94.0°F34.4°C 78.5°F25.8°C 61% 4.0 mph SE6.4 kmh SE 9.0 mph14.5 kmh 29.97 in1014.9 mb 0.00 in0.0 mm 0.00 in0.0 mm 0.00 in0.0 mm
12:20 PM 94.0°F34.4°C 78.0°F25.6°C 60% 4.0 mph SSE6.4 kmh SSE 7.0 mph11.3 kmh 29.96 in1014.6 mb 0.00 in0.0 mm 0.00 in0.0 mm 0.00 in0.0 mm
12:25 PM 94.0°F34.4°C 78.5°F25.8°C 61% 4.0 mph SSE6.4 kmh SSE 7.0 mph11.3 kmh 29.96 in1014.6 mb 0.00 in0.0 mm 0.00 in0.0 mm 0.00 in0.0 mm
12:30 PM 94.3°F34.6°C 78.8°F26.0°C 61% 3.0 mph SE4.8 kmh SE 7.0 mph11.3 kmh 29.96 in1014.6 mb 0.00 in0.0 mm 0.00 in0.0 mm 0.00 in0.0 mm
12:35 PM 94.7°F34.8°C 79.7°F26.5°C 62% 3.0 mph ESE4.8 kmh ESE 6.0 mph9.7 kmh 29.95 in1014.2 mb 0.00 in0.0 mm 0.00 in0.0 mm 0.00 in0.0 mm
12:40 PM 95.1°F35.1°C 79.0°F26.1°C 60% 3.0 mph ESE4.8 kmh ESE 8.0 mph12.9 kmh 29.95 in1014.2 mb 0.00 in0.0 mm 0.00 in0.0 mm 0.00 in0.0 mm
12:45 PM 95.5°F35.3°C 79.9°F26.6°C 61% 4.0 mph SE6.4 kmh SE 8.0 mph12.9 kmh 29.95 in1014.2 mb 0.00 in0.0 mm 0.00 in0.0 mm 0.00 in0.0 mm
12:50 PM 95.5°F35.3°C 79.4°F26.3°C 60% 4.0 mph E6.4 kmh E 7.0 mph11.3 kmh 29.95 in1014.2 mb 0.00 in0.0 mm 0.00 in0.0 mm 0.00 in0.0 mm
12:55 PM 95.2°F35.1°C 78.6°F25.9°C 59% 3.0 mph E4.8 kmh E 7.0 mph11.3 kmh 29.95 in1014.2 mb 0.00 in0.0 mm 0.00 in0.0 mm 0.00 in0.0 mm
01:00 PM 94.8°F34.9°C 78.7°F25.9°C 60% 3.0 mph E4.8 kmh E 6.0 mph9.7 kmh 29.95 in1014.2 mb 0.00 in0.0 mm 0.00 in0.0 mm 0.00 in0.0 mm
01:05 PM 95.1°F35.1°C 78.5°F25.8°C 59% 2.0 mph E3.2 kmh E 6.0 mph9.7 kmh 29.95 in1014.2 mb 0.00 in0.0 mm 0.00 in0.0 mm 0.00 in0.0 mm
01:10 PM 95.5°F35.3°C 78.9°F26.1°C 59% 2.0 mph E3.2 kmh E 4.0 mph6.4 kmh 29.95 in1014.2 mb 0.00 in0.0 mm 0.00 in0.0 mm 0.00 in0.0 mm
01:15 PM 96.1°F35.6°C 78.9°F26.1°C 58% 2.0 mph SE3.2 kmh SE 5.0 mph8.0 kmh 29.94 in1013.9 mb 0.00 in0.0 mm 0.00 in0.0 mm 0.00 in0.0 mm
01:20 PM 96.3°F35.7°C 79.1°F26.2°C 58% 2.0 mph SE3.2 kmh SE 5.0 mph8.0 kmh 29.94 in1013.9 mb 0.00 in0.0 mm 0.00 in0.0 mm 0.00 in0.0 mm
01:25 PM 96.2°F35.7°C 79.0°F26.1°C 58% 3.0 mph SSE4.8 kmh SSE 8.0 mph12.9 kmh 29.94 in1013.9 mb 0.00 in0.0 mm 0.00 in0.0 mm 0.00 in0.0 mm
01:30 PM 96.2°F35.7°C 78.5°F25.8°C 57% 3.0 mph S4.8 kmh S 8.0 mph12.9 kmh 29.94 in1013.9 mb 0.00 in0.0 mm 0.00 in0.0 mm 0.00 in0.0 mm
01:35 PM 96.2°F35.7°C 79.5°F26.4°C 59% 3.0 mph S4.8 kmh S 6.0 mph9.7 kmh 29.94 in1013.9 mb 0.00 in0.0 mm 0.00 in0.0 mm 0.00 in0.0 mm
01:40 PM 96.9°F36.1°C 80.2°F26.8°C 59% 3.0 mph S4.8 kmh S 6.0 mph9.7 kmh 29.94 in1013.9 mb 0.00 in0.0 mm 0.00 in0.0 mm 0.00 in0.0 mm
01:45 PM 97.6°F36.4°C 79.8°F26.6°C 57% 3.0 mph SSE4.8 kmh SSE 7.0 mph11.3 kmh 29.94 in1013.9 mb 0.00 in0.0 mm 0.00 in0.0 mm 0.00 in0.0 mm
01:50 PM 98.2°F36.8°C 80.4°F26.9°C 57% 2.0 mph S3.2 kmh S 7.0 mph11.3 kmh 29.94 in1013.9 mb 0.00 in0.0 mm 0.00 in0.0 mm 0.00 in0.0 mm
01:55 PM 98.1°F36.7°C 79.2°F26.2°C 55% 2.0 mph SSW3.2 kmh SSW 5.0 mph8.0 kmh 29.93 in1013.5 mb 0.00 in0.0 mm 0.00 in0.0 mm 0.00 in0.0 mm
02:00 PM 97.5°F36.4°C 78.1°F25.6°C 54% 3.0 mph S4.8 kmh S 5.0 mph8.0 kmh 29.93 in1013.5 mb 0.00 in0.0 mm 0.00 in0.0 mm 0.00 in0.0 mm
02:05 PM 96.7°F35.9°C 79.0°F26.1°C 57% 2.0 mph S3.2 kmh S 5.0 mph8.0 kmh 29.93 in1013.5 mb 0.00 in0.0 mm 0.00 in0.0 mm 0.00 in0.0 mm
02:10 PM 96.3°F35.7°C 78.6°F25.9°C 57% 2.0 mph SW3.2 kmh SW 4.0 mph6.4 kmh 29.93 in1013.5 mb 0.00 in0.0 mm 0.00 in0.0 mm 0.00 in0.0 mm
02:15 PM 96.8°F36.0°C 79.6°F26.4°C 58% 2.0 mph W3.2 kmh W 5.0 mph8.0 kmh 29.92 in1013.2 mb 0.00 in0.0 mm 0.00 in0.0 mm 0.00 in0.0 mm
02:20 PM 97.3°F36.3°C 79.5°F26.4°C 57% 2.0 mph WSW3.2 kmh WSW 5.0 mph8.0 kmh 29.92 in1013.2 mb 0.00 in0.0 mm 0.00 in0.0 mm 0.00 in0.0 mm
02:25 PM 97.3°F36.3°C 79.0°F26.1°C 56% 3.0 mph SW4.8 kmh SW 5.0 mph8.0 kmh 29.92 in1013.2 mb 0.00 in0.0 mm 0.00 in0.0 mm 0.00 in0.0 mm
02:30 PM 97.2°F36.2°C 77.8°F25.4°C 54% 2.0 mph WSW3.2 kmh WSW 5.0 mph8.0 kmh 29.92 in1013.2 mb 0.00 in0.0 mm 0.00 in0.0 mm 0.00 in0.0 mm
02:35 PM 96.9°F36.1°C 78.1°F25.6°C 55% 2.0 mph W3.2 kmh W 4.0 mph6.4 kmh 29.91 in1012.9 mb 0.00 in0.0 mm 0.00 in0.0 mm 0.00 in0.0 mm
02:40 PM 97.2°F36.2°C 79.4°F26.3°C 57% 1.0 mph NW1.6 kmh NW 4.0 mph6.4 kmh 29.91 in1012.9 mb 0.00 in0.0 mm 0.00 in0.0 mm 0.00 in0.0 mm
02:45 PM 97.8°F36.6°C 78.9°F26.1°C 55% 2.0 mph SE3.2 kmh SE 5.0 mph8.0 kmh 29.91 in1012.9 mb 0.00 in0.0 mm 0.00 in0.0 mm 0.00 in0.0 mm
02:50 PM 98.4°F36.9°C 79.4°F26.3°C 55% 2.0 mph SE3.2 kmh SE 5.0 mph8.0 kmh 29.91 in1012.9 mb 0.00 in0.0 mm 0.00 in0.0 mm 0.00 in0.0 mm
02:55 PM 98.7°F37.1°C 79.2°F26.2°C 54% 2.0 mph ESE3.2 kmh ESE 6.0 mph9.7 kmh 29.91 in1012.9 mb 0.00 in0.0 mm 0.00 in0.0 mm 0.00 in0.0 mm
03:00 PM 99.2°F37.3°C 79.1°F26.2°C 53% 3.0 mph SE4.8 kmh SE 6.0 mph9.7 kmh 29.91 in1012.9 mb 0.00 in0.0 mm 0.00 in0.0 mm 0.00 in0.0 mm
03:05 PM 99.5°F37.5°C 79.3°F26.3°C 53% 3.0 mph SE4.8 kmh SE 6.0 mph9.7 kmh 29.91 in1012.9 mb 0.00 in0.0 mm 0.00 in0.0 mm 0.00 in0.0 mm
03:10 PM 99.8°F37.7°C 79.6°F26.4°C 53% 3.0 mph SE4.8 kmh SE 7.0 mph11.3 kmh 29.91 in1012.9 mb 0.00 in0.0 mm 0.00 in0.0 mm 0.00 in0.0 mm
03:15 PM 99.9°F37.7°C 80.3°F26.8°C 54% 3.0 mph SE4.8 kmh SE 7.0 mph11.3 kmh 29.90 in1012.5 mb 0.00 in0.0 mm 0.00 in0.0 mm 0.00 in0.0 mm
03:20 PM 100.3°F37.9°C 80.1°F26.7°C 53% 3.0 mph SE4.8 kmh SE 6.0 mph9.7 kmh 29.90 in1012.5 mb 0.00 in0.0 mm 0.00 in0.0 mm 0.00 in0.0 mm
03:25 PM 100.3°F37.9°C 78.9°F26.1°C 51% 2.0 mph SSE3.2 kmh SSE 5.0 mph8.0 kmh 29.90 in1012.5 mb 0.00 in0.0 mm 0.00 in0.0 mm 0.00 in0.0 mm
03:30 PM 100.1°F37.8°C 79.9°F26.6°C 53% 3.0 mph SSW4.8 kmh SSW 6.0 mph9.7 kmh 29.90 in1012.5 mb 0.00 in0.0 mm 0.00 in0.0 mm 0.00 in0.0 mm
03:35 PM 99.4°F37.4°C 78.7°F25.9°C 52% 2.0 mph SW3.2 kmh SW 6.0 mph9.7 kmh 29.90 in1012.5 mb 0.00 in0.0 mm 0.00 in0.0 mm 0.00 in0.0 mm
03:40 PM 98.9°F37.2°C 79.3°F26.3°C 54% 1.0 mph SSW1.6 kmh SSW 4.0 mph6.4 kmh 29.90 in1012.5 mb 0.00 in0.0 mm 0.00 in0.0 mm 0.00 in0.0 mm
03:45 PM 99.1°F37.3°C 79.5°F26.4°C 54% 1.0 mph S1.6 kmh S 4.0 mph6.4 kmh 29.90 in1012.5 mb 0.00 in0.0 mm 0.00 in0.0 mm 0.00 in0.0 mm
03:50 PM 99.5°F37.5°C 79.3°F26.3°C 53% 1.0 mph S1.6 kmh S 4.0 mph6.4 kmh 29.90 in1012.5 mb 0.00 in0.0 mm 0.00 in0.0 mm 0.00 in0.0 mm
03:55 PM 97.9°F36.6°C 79.0°F26.1°C 55% 3.0 mph N4.8 kmh N 14.0 mph22.5 kmh 29.91 in1012.9 mb 0.00 in0.0 mm 0.00 in0.0 mm 0.00 in0.0 mm
04:00 PM 93.7°F34.3°C 77.7°F25.4°C 60% 6.0 mph N9.7 kmh N 15.0 mph24.1 kmh 29.91 in1012.9 mb 0.00 in0.0 mm 0.00 in0.0 mm 0.00 in0.0 mm
04:05 PM 90.1°F32.3°C 75.8°F24.3°C 63% 7.0 mph N11.3 kmh N 16.0 mph25.7 kmh 29.91 in1012.9 mb 0.00 in0.0 mm 0.00 in0.0 mm 0.00 in0.0 mm
04:10 PM 87.5°F30.8°C 73.3°F22.9°C 63% 7.0 mph N11.3 kmh N 16.0 mph25.7 kmh 29.91 in1012.9 mb 0.00 in0.0 mm 0.00 in0.0 mm 0.00 in0.0 mm
04:15 PM 86.3°F30.2°C 69.3°F20.7°C 57% 7.0 mph N11.3 kmh N 12.0 mph19.3 kmh 29.91 in1012.9 mb 0.00 in0.0 mm 0.00 in0.0 mm 0.00 in0.0 mm
04:20 PM 85.4°F29.7°C 65.2°F18.4°C 51% 5.0 mph N8.0 kmh N 11.0 mph17.7 kmh 29.91 in1012.9 mb 0.00 in0.0 mm 0.00 in0.0 mm 0.00 in0.0 mm
04:25 PM 84.4°F29.1°C 62.0°F16.7°C 47% 4.0 mph N6.4 kmh N 10.0 mph16.1 kmh 29.91 in1012.9 mb 0.00 in0.0 mm 0.00 in0.0 mm 0.00 in0.0 mm
04:30 PM 83.8°F28.8°C 58.3°F14.6°C 42% 4.0 mph NNW6.4 kmh NNW 10.0 mph16.1 kmh 29.91 in1012.9 mb 0.00 in0.0 mm 0.00 in0.0 mm 0.00 in0.0 mm
04:35 PM 83.5°F28.6°C 58.0°F14.4°C 42% 3.0 mph NNW4.8 kmh NNW 7.0 mph11.3 kmh 29.91 in1012.9 mb 0.00 in0.0 mm 0.00 in0.0 mm 0.00 in0.0 mm
04:40 PM 83.4°F28.6°C 54.4°F12.4°C 37% 2.0 mph NNW3.2 kmh NNW 6.0 mph9.7 kmh 29.91 in1012.9 mb 0.00 in0.0 mm 0.00 in0.0 mm 0.00 in0.0 mm
04:45 PM 83.3°F28.5°C 52.8°F11.6°C 35% 2.0 mph NW3.2 kmh NW 5.0 mph8.0 kmh 29.92 in1013.2 mb 0.00 in0.0 mm 0.00 in0.0 mm 0.00 in0.0 mm
04:50 PM 83.2°F28.4°C 49.4°F9.7°C 31% 3.0 mph NW4.8 kmh NW 5.0 mph8.0 kmh 29.92 in1013.2 mb 0.00 in0.0 mm 0.00 in0.0 mm 0.00 in0.0 mm
04:55 PM 82.8°F28.2°C 46.4°F8.0°C 28% 2.0 mph NW3.2 kmh NW 6.0 mph9.7 kmh 29.91 in1012.9 mb 0.00 in0.0 mm 0.00 in0.0 mm 0.00 in0.0 mm
05:00 PM 82.6°F28.1°C 43.2°F6.2°C 25% 3.0 mph NW4.8 kmh NW 6.0 mph9.7 kmh 29.91 in1012.9 mb 0.00 in0.0 mm 0.00 in0.0 mm 0.00 in0.0 mm
05:05 PM 82.5°F28.1°C 43.1°F6.2°C 25% 4.0 mph WNW6.4 kmh WNW 6.0 mph9.7 kmh 29.91 in1012.9 mb 0.00 in0.0 mm 0.00 in0.0 mm 0.00 in0.0 mm
05:10 PM 82.5°F28.1°C 37.4°F3.0°C 20% 3.0 mph NW4.8 kmh NW 6.0 mph9.7 kmh 29.93 in1013.5 mb 0.00 in0.0 mm 0.00 in0.0 mm 0.00 in0.0 mm
05:15 PM 82.5°F28.1°C 36.1°F2.3°C 19% 3.0 mph NW4.8 kmh NW 6.0 mph9.7 kmh 29.93 in1013.5 mb 0.00 in0.0 mm 0.00 in0.0 mm 0.00 in0.0 mm
05:20 PM 82.5°F28.1°C 34.7°F1.5°C 18% 3.0 mph NW4.8 kmh NW 6.0 mph9.7 kmh 29.93 in1013.5 mb 0.00 in0.0 mm 0.00 in0.0 mm 0.00 in0.0 mm
05:25 PM 82.5°F28.1°C 37.4°F3.0°C 20% 3.0 mph NE4.8 kmh NE 7.0 mph11.3 kmh 29.93 in1013.5 mb 0.00 in0.0 mm 0.00 in0.0 mm 0.00 in0.0 mm
05:30 PM 82.4°F28.0°C 38.5°F3.6°C 21% 2.0 mph E3.2 kmh E 7.0 mph11.3 kmh 29.92 in1013.2 mb 0.00 in0.0 mm 0.00 in0.0 mm 0.00 in0.0 mm
05:35 PM 82.4°F28.0°C 44.1°F6.7°C 26% 1.0 mph E1.6 kmh E 5.0 mph8.0 kmh 29.93 in1013.5 mb 0.00 in0.0 mm 0.00 in0.0 mm 0.00 in0.0 mm
05:40 PM 82.3°F27.9°C 44.0°F6.7°C 26% 1.0 mph S1.6 kmh S 5.0 mph8.0 kmh 29.94 in1013.9 mb 0.00 in0.0 mm 0.00 in0.0 mm 0.00 in0.0 mm
05:45 PM 82.3°F27.9°C 40.8°F4.9°C 23% 2.0 mph WSW3.2 kmh WSW 6.0 mph9.7 kmh 29.94 in1013.9 mb 0.00 in0.0 mm 0.00 in0.0 mm 0.00 in0.0 mm
05:50 PM 82.1°F27.8°C 44.8°F7.1°C 27% 3.0 mph W4.8 kmh W 8.0 mph12.9 kmh 29.95 in1014.2 mb 0.00 in0.0 mm 0.00 in0.0 mm 0.00 in0.0 mm
05:55 PM 81.8°F27.7°C 41.5°F5.3°C 24% 3.0 mph W4.8 kmh W 8.0 mph12.9 kmh 29.94 in1013.9 mb 0.00 in0.0 mm 0.00 in0.0 mm 0.00 in0.0 mm
06:00 PM 81.6°F27.6°C 36.6°F2.6°C 20% 2.0 mph WNW3.2 kmh WNW 4.0 mph6.4 kmh 29.95 in1014.2 mb 0.00 in0.0 mm 0.00 in0.0 mm 0.00 in0.0 mm
06:05 PM 81.4°F27.4°C 19.6°F-6.9°C 10% 2.0 mph WSW3.2 kmh WSW 8.0 mph12.9 kmh 29.95 in1014.2 mb 0.00 in0.0 mm 0.00 in0.0 mm 0.00 in0.0 mm
06:10 PM 80.8°F27.1°C -0.9°F-18.3°C 0% 4.0 mph S6.4 kmh S 10.0 mph16.1 kmh 29.96 in1014.6 mb 0.16 in4.1 mm 1.92 in48.8 mm 0.16 in4.1 mm
06:15 PM 79.2°F26.2°C -0.9°F-18.3°C 0% 6.0 mph SSE9.7 kmh SSE 13.0 mph20.9 kmh 29.96 in1014.6 mb 0.31 in7.9 mm 1.80 in45.7 mm 0.31 in7.9 mm
06:20 PM 77.9°F25.5°C -0.9°F-18.3°C 0% 7.0 mph SSE11.3 kmh SSE 13.0 mph20.9 kmh 29.96 in1014.6 mb 0.37 in9.4 mm 0.72 in18.3 mm 0.37 in9.4 mm
06:25 PM 77.4°F25.2°C -0.9°F-18.3°C 0% 6.0 mph SE9.7 kmh SE 11.0 mph17.7 kmh 29.98 in1015.2 mb 0.41 in10.4 mm 0.48 in12.2 mm 0.41 in10.4 mm
06:30 PM 76.8°F24.9°C -0.9°F-18.3°C 0% 5.0 mph SE8.0 kmh SE 9.0 mph14.5 kmh 29.99 in1015.6 mb 0.63 in16.0 mm 2.64 in67.1 mm 0.63 in16.0 mm
06:35 PM 76.3°F24.6°C -0.9°F-18.3°C 0% 4.0 mph E6.4 kmh E 15.0 mph24.1 kmh 30.00 in1015.9 mb 0.92 in23.4 mm 3.48 in88.4 mm 0.92 in23.4 mm
06:40 PM 75.1°F23.9°C -0.9°F-18.3°C 0% 5.0 mph ENE8.0 kmh ENE 16.0 mph25.7 kmh 30.00 in1015.9 mb 1.25 in31.8 mm 3.96 in100.6 mm 1.25 in31.8 mm
06:45 PM 73.8°F23.2°C -0.9°F-18.3°C 0% 5.0 mph NE8.0 kmh NE 16.0 mph25.7 kmh 29.98 in1015.2 mb 1.57 in39.9 mm 3.84 in97.5 mm 1.57 in39.9 mm
06:50 PM 72.7°F22.6°C -0.9°F-18.3°C 0% 5.0 mph SW8.0 kmh SW 14.0 mph22.5 kmh 29.95 in1014.2 mb 1.77 in45.0 mm 2.40 in61.0 mm 1.77 in45.0 mm
06:55 PM 72.1°F22.3°C -0.9°F-18.3°C 0% 5.0 mph SW8.0 kmh SW 14.0 mph22.5 kmh 29.93 in1013.5 mb 1.83 in46.5 mm 0.72 in18.3 mm 1.83 in46.5 mm
07:00 PM 72.0°F22.2°C -0.9°F-18.3°C 0% 4.0 mph SW6.4 kmh SW 9.0 mph14.5 kmh 29.93 in1013.5 mb 1.83 in46.5 mm 0.00 in0.0 mm 1.83 in46.5 mm
07:05 PM 71.9°F22.2°C -0.9°F-18.3°C 0% 3.0 mph SW4.8 kmh SW 7.0 mph11.3 kmh 29.92 in1013.2 mb 1.82 in46.2 mm 0.00 in0.0 mm 1.83 in46.5 mm
07:10 PM 71.9°F22.2°C -0.9°F-18.3°C 0% 3.0 mph SSW4.8 kmh SSW 6.0 mph9.7 kmh 29.93 in1013.5 mb 1.68 in42.7 mm 0.00 in0.0 mm 1.84 in46.7 mm
07:15 PM 72.1°F22.3°C -0.9°F-18.3°C 0% 2.0 mph S3.2 kmh S 3.0 mph4.8 kmh 29.93 in1013.5 mb 1.53 in38.9 mm 0.00 in0.0 mm 1.84 in46.7 mm
07:20 PM 72.1°F22.3°C -0.9°F-18.3°C 0% 2.0 mph WNW3.2 kmh WNW 4.0 mph6.4 kmh 29.93 in1013.5 mb 1.47 in37.3 mm 0.00 in0.0 mm 1.84 in46.7 mm
07:25 PM 72.2°F22.3°C -0.9°F-18.3°C 0% 2.0 mph NNE3.2 kmh NNE 4.0 mph6.4 kmh 29.93 in1013.5 mb 1.43 in36.3 mm 0.00 in0.0 mm 1.84 in46.7 mm
07:30 PM 72.1°F22.3°C -0.9°F-18.3°C 0% 2.0 mph ENE3.2 kmh ENE 4.0 mph6.4 kmh 29.93 in1013.5 mb 1.21 in30.7 mm 0.00 in0.0 mm 1.84 in46.7 mm
07:35 PM 72.2°F22.3°C -0.9°F-18.3°C 0% 2.0 mph NE3.2 kmh NE 4.0 mph6.4 kmh 29.93 in1013.5 mb 0.92 in23.4 mm 0.00 in0.0 mm 1.84 in46.7 mm
07:40 PM 72.1°F22.3°C -0.9°F-18.3°C 0% 2.0 mph ENE3.2 kmh ENE 5.0 mph8.0 kmh 29.93 in1013.5 mb 0.54 in13.7 mm 0.00 in0.0 mm 1.84 in46.7 mm
07:45 PM 72.1°F22.3°C -0.9°F-18.3°C 0% 2.0 mph ENE3.2 kmh ENE 5.0 mph8.0 kmh 29.94 in1013.9 mb 0.21 in5.3 mm 0.00 in0.0 mm 1.84 in46.7 mm
07:50 PM 72.1°F22.3°C -0.9°F-18.3°C 0% 1.0 mph ENE1.6 kmh ENE 5.0 mph8.0 kmh 29.94 in1013.9 mb 0.05 in1.3 mm 0.00 in0.0 mm 1.84 in46.7 mm
07:55 PM 72.1°F22.3°C -0.9°F-18.3°C 0% 1.0 mph E1.6 kmh E 5.0 mph8.0 kmh 29.95 in1014.2 mb 0.01 in0.3 mm 0.00 in0.0 mm 1.84 in46.7 mm
08:00 PM 72.2°F22.3°C -0.9°F-18.3°C 0% 1.0 mph E1.6 kmh E 2.0 mph3.2 kmh 29.95 in1014.2 mb 0.02 in0.5 mm 0.01 in0.3 mm 1.85 in47.0 mm
08:05 PM 72.3°F22.4°C -0.9°F-18.3°C 0% 1.0 mph E1.6 kmh E 3.0 mph4.8 kmh 29.96 in1014.6 mb 0.02 in0.5 mm 0.00 in0.0 mm 1.85 in47.0 mm
08:10 PM 72.4°F22.4°C -0.9°F-18.3°C 0% 1.0 mph ESE1.6 kmh ESE 3.0 mph4.8 kmh 29.97 in1014.9 mb 0.01 in0.3 mm 0.00 in0.0 mm 1.85 in47.0 mm
08:15 PM 72.7°F22.6°C -0.9°F-18.3°C 0% 1.0 mph SE1.6 kmh SE 3.0 mph4.8 kmh 29.98 in1015.2 mb 0.02 in0.5 mm 0.12 in3.0 mm 1.86 in47.2 mm
08:20 PM 72.8°F22.7°C -0.9°F-18.3°C 0% 1.0 mph W1.6 kmh W 3.0 mph4.8 kmh 29.98 in1015.2 mb 0.02 in0.5 mm 0.00 in0.0 mm 1.86 in47.2 mm
08:25 PM 72.9°F22.7°C -0.9°F-18.3°C 0% 1.0 mph WNW1.6 kmh WNW 3.0 mph4.8 kmh 29.97 in1014.9 mb 0.03 in0.8 mm 0.12 in3.0 mm 1.87 in47.5 mm
08:30 PM 73.0°F22.8°C -0.9°F-18.3°C 0% 1.0 mph NW1.6 kmh NW 3.0 mph4.8 kmh 29.97 in1014.9 mb 0.03 in0.8 mm 0.00 in0.0 mm 1.87 in47.5 mm
08:35 PM 73.1°F22.8°C -0.9°F-18.3°C 0% 1.0 mph NW1.6 kmh NW 4.0 mph6.4 kmh 29.97 in1014.9 mb 0.04 in1.0 mm 0.12 in3.0 mm 1.88 in47.8 mm
08:40 PM 73.2°F22.9°C -0.9°F-18.3°C 0% 1.0 mph NW1.6 kmh NW 4.0 mph6.4 kmh 29.97 in1014.9 mb 0.04 in1.0 mm 0.00 in0.0 mm 1.88 in47.8 mm
08:45 PM 73.2°F22.9°C -0.9°F-18.3°C 0% 1.0 mph WNW1.6 kmh WNW 3.0 mph4.8 kmh 29.97 in1014.9 mb 0.04 in1.0 mm 0.00 in0.0 mm 1.88 in47.8 mm
08:50 PM 73.3°F22.9°C -0.9°F-18.3°C 0% 1.0 mph WNW1.6 kmh WNW 3.0 mph4.8 kmh 29.97 in1014.9 mb 0.04 in1.0 mm 0.00 in0.0 mm 1.88 in47.8 mm
08:55 PM 73.5°F23.1°C -0.9°F-18.3°C 0% 2.0 mph NW3.2 kmh NW 5.0 mph8.0 kmh 29.98 in1015.2 mb 0.04 in1.0 mm 0.00 in0.0 mm 1.88 in47.8 mm
09:00 PM 73.7°F23.2°C -0.9°F-18.3°C 0% 2.0 mph NW3.2 kmh NW 5.0 mph8.0 kmh 29.98 in1015.2 mb 0.03 in0.8 mm 0.00 in0.0 mm 1.88 in47.8 mm
09:05 PM 73.8°F23.2°C -0.9°F-18.3°C 0% 2.0 mph NW3.2 kmh NW 5.0 mph8.0 kmh 29.98 in1015.2 mb 0.03 in0.8 mm 0.00 in0.0 mm 1.88 in47.8 mm
09:10 PM 73.9°F23.3°C -0.9°F-18.3°C 0% 1.0 mph NW1.6 kmh NW 3.0 mph4.8 kmh 29.99 in1015.6 mb 0.03 in0.8 mm 0.00 in0.0 mm 1.88 in47.8 mm
09:15 PM 74.0°F23.3°C -0.9°F-18.3°C 0% 1.0 mph NW1.6 kmh NW 3.0 mph4.8 kmh 29.99 in1015.6 mb 0.02 in0.5 mm 0.00 in0.0 mm 1.88 in47.8 mm
09:20 PM 74.1°F23.4°C -0.9°F-18.3°C 0% 1.0 mph NW1.6 kmh NW 2.0 mph3.2 kmh 29.99 in1015.6 mb 0.02 in0.5 mm 0.00 in0.0 mm 1.88 in47.8 mm
09:25 PM 74.1°F23.4°C -0.9°F-18.3°C 0% Calm Calm 4.0 mph6.4 kmh 29.99 in1015.6 mb 0.01 in0.3 mm 0.00 in0.0 mm 1.88 in47.8 mm
09:30 PM 74.0°F23.3°C -0.9°F-18.3°C 0% 3.0 mph SE4.8 kmh SE 10.0 mph16.1 kmh 29.99 in1015.6 mb 0.01 in0.3 mm 0.00 in0.0 mm 1.88 in47.8 mm
09:35 PM 73.8°F23.2°C -0.9°F-18.3°C 0% 4.0 mph SE6.4 kmh SE 10.0 mph16.1 kmh 29.98 in1015.2 mb 0.00 in0.0 mm 0.00 in0.0 mm 1.88 in47.8 mm
09:40 PM 73.8°F23.2°C -0.9°F-18.3°C 0% 3.0 mph SE4.8 kmh SE 6.0 mph9.7 kmh 29.98 in1015.2 mb 0.00 in0.0 mm 0.00 in0.0 mm 1.88 in47.8 mm
09:45 PM 73.8°F23.2°C -0.9°F-18.3°C 0% 3.0 mph SE4.8 kmh SE 5.0 mph8.0 kmh 29.98 in1015.2 mb 0.00 in0.0 mm 0.00 in0.0 mm 1.88 in47.8 mm
09:50 PM 73.9°F23.3°C -0.9°F-18.3°C 0% 2.0 mph SE3.2 kmh SE 5.0 mph8.0 kmh 29.98 in1015.2 mb 0.00 in0.0 mm 0.00 in0.0 mm 1.88 in47.8 mm
09:55 PM 74.0°F23.3°C -0.9°F-18.3°C 0% 1.0 mph SE1.6 kmh SE 3.0 mph4.8 kmh 29.98 in1015.2 mb 0.00 in0.0 mm 0.00 in0.0 mm 1.88 in47.8 mm
10:00 PM 74.1°F23.4°C -0.9°F-18.3°C 0% 1.0 mph SE1.6 kmh SE 2.0 mph3.2 kmh 29.98 in1015.2 mb 0.00 in0.0 mm 0.00 in0.0 mm 1.88 in47.8 mm
10:05 PM 74.3°F23.5°C -0.9°F-18.3°C 0% 1.0 mph SE1.6 kmh SE 4.0 mph6.4 kmh 29.98 in1015.2 mb 0.00 in0.0 mm 0.00 in0.0 mm 1.88 in47.8 mm
10:10 PM 74.5°F23.6°C -0.9°F-18.3°C 0% 2.0 mph SE3.2 kmh SE 5.0 mph8.0 kmh 29.99 in1015.6 mb 0.00 in0.0 mm 0.00 in0.0 mm 1.88 in47.8 mm
10:15 PM 74.5°F23.6°C -0.9°F-18.3°C 0% 3.0 mph NE4.8 kmh NE 9.0 mph14.5 kmh 30.00 in1015.9 mb 0.00 in0.0 mm 0.00 in0.0 mm 1.88 in47.8 mm
10:20 PM 74.3°F23.5°C -0.9°F-18.3°C 0% 2.0 mph NNE3.2 kmh NNE 9.0 mph14.5 kmh 30.00 in1015.9 mb 0.00 in0.0 mm 0.00 in0.0 mm 1.88 in47.8 mm
10:25 PM 74.2°F23.4°C -0.9°F-18.3°C 0% 1.0 mph N1.6 kmh N 2.0 mph3.2 kmh 30.00 in1015.9 mb 0.00 in0.0 mm 0.00 in0.0 mm 1.88 in47.8 mm
10:30 PM 74.2°F23.4°C -0.9°F-18.3°C 0% 1.0 mph N1.6 kmh N 3.0 mph4.8 kmh 30.00 in1015.9 mb 0.00 in0.0 mm 0.00 in0.0 mm 1.88 in47.8 mm
10:35 PM 74.2°F23.4°C -0.9°F-18.3°C 0% 1.0 mph N1.6 kmh N 3.0 mph4.8 kmh 29.98 in1015.2 mb 0.00 in0.0 mm 0.00 in0.0 mm 1.88 in47.8 mm
10:40 PM 74.3°F23.5°C -0.9°F-18.3°C 0% 1.0 mph N1.6 kmh N 2.0 mph3.2 kmh 29.98 in1015.2 mb 0.00 in0.0 mm 0.00 in0.0 mm 1.88 in47.8 mm
10:45 PM 74.4°F23.6°C -0.9°F-18.3°C 0% 1.0 mph N1.6 kmh N 1.0 mph1.6 kmh 29.99 in1015.6 mb 0.00 in0.0 mm 0.00 in0.0 mm 1.88 in47.8 mm
10:50 PM 74.4°F23.6°C -0.9°F-18.3°C 0% Calm Calm 2.0 mph3.2 kmh 29.99 in1015.6 mb 0.00 in0.0 mm 0.00 in0.0 mm 1.88 in47.8 mm
10:55 PM 74.5°F23.6°C -0.9°F-18.3°C 0% 1.0 mph N1.6 kmh N 2.0 mph3.2 kmh 29.99 in1015.6 mb 0.00 in0.0 mm 0.00 in0.0 mm 1.88 in47.8 mm
11:00 PM 74.8°F23.8°C -0.9°F-18.3°C 0% 1.0 mph N1.6 kmh N 3.0 mph4.8 kmh 30.00 in1015.9 mb 0.00 in0.0 mm 0.00 in0.0 mm 1.87 in47.5 mm
11:05 PM 75.0°F23.9°C -0.9°F-18.3°C 0% 2.0 mph N3.2 kmh N 3.0 mph4.8 kmh 30.00 in1015.9 mb 0.00 in0.0 mm 0.00 in0.0 mm 1.87 in47.5 mm
11:10 PM 75.1°F23.9°C -0.9°F-18.3°C 0% 1.0 mph N1.6 kmh N 3.0 mph4.8 kmh 30.00 in1015.9 mb 0.00 in0.0 mm 0.00 in0.0 mm 1.87 in47.5 mm
11:15 PM 75.1°F23.9°C -0.9°F-18.3°C 0% Calm Calm 2.0 mph3.2 kmh 30.00 in1015.9 mb 0.00 in0.0 mm 0.00 in0.0 mm 1.87 in47.5 mm
11:20 PM 75.2°F24.0°C -0.9°F-18.3°C 0% Calm Calm 1.0 mph1.6 kmh 30.00 in1015.9 mb 0.00 in0.0 mm 0.00 in0.0 mm 1.87 in47.5 mm
11:25 PM 75.4°F24.1°C -0.9°F-18.3°C 0% Calm Calm 2.0 mph3.2 kmh 30.00 in1015.9 mb 0.00 in0.0 mm 0.00 in0.0 mm 1.87 in47.5 mm
11:30 PM 75.6°F24.2°C -0.9°F-18.3°C 0% 1.0 mph NNE1.6 kmh NNE 2.0 mph3.2 kmh 30.00 in1015.9 mb 0.00 in0.0 mm 0.00 in0.0 mm 1.87 in47.5 mm
11:35 PM 75.6°F24.2°C -0.9°F-18.3°C 0% 1.0 mph NNE1.6 kmh NNE 2.0 mph3.2 kmh 30.00 in1015.9 mb 0.00 in0.0 mm 0.00 in0.0 mm 1.87 in47.5 mm
11:40 PM 75.7°F24.3°C -0.9°F-18.3°C 0% 1.0 mph NNE1.6 kmh NNE 2.0 mph3.2 kmh 29.99 in1015.6 mb 0.00 in0.0 mm 0.00 in0.0 mm 1.87 in47.5 mm
11:45 PM 75.7°F24.3°C -0.9°F-18.3°C 0% 1.0 mph NE1.6 kmh NE 3.0 mph4.8 kmh 29.99 in1015.6 mb 0.00 in0.0 mm 0.00 in0.0 mm 1.87 in47.5 mm
11:50 PM 75.7°F24.3°C -0.9°F-18.3°C 0% 1.0 mph E1.6 kmh E 3.0 mph4.8 kmh 29.99 in1015.6 mb 0.00 in0.0 mm 0.00 in0.0 mm 1.87 in47.5 mm
11:55 PM 75.6°F24.2°C -0.9°F-18.3°C 0% 2.0 mph ESE3.2 kmh ESE 3.0 mph4.8 kmh 29.98 in1015.2 mb 0.00 in0.0 mm 0.00 in0.0 mm 1.87 in47.5 mm